Time;durP1;ratioP1;P1;durP2;ratioP2;P2;SDS_P1;SDS_P2;PMS_P1;PMS_P2;Temp;Humidity;BMP_temperature;BMP_pressure;BME280_temperature;BME280_humidity;BME280_pressure;Samples;Min_cycle;Max_cycle;Signal;HPM_P1;HPM_P2
2020/12/21 00:00:08;;;;;;;4.82;2.10;;;9.80;82.50;;;;;;5054514;28;20025;-75
2020/12/21 00:02:38;;;;;;;4.00;1.98;;;9.80;82.50;;;;;;5051270;28;20028;-76
2020/12/21 00:05:04;;;;;;;3.70;2.10;;;9.80;82.50;;;;;;5060756;28;20017;-77
2020/12/21 00:07:31;;;;;;;5.63;2.13;;;9.80;82.50;;;;;;5048465;28;20109;-76
2020/12/21 00:09:57;;;;;;;4.20;2.17;;;9.70;82.40;;;;;;5051147;28;20107;-80
2020/12/21 00:12:22;;;;;;;5.30;2.45;;;9.80;82.50;;;;;;5047121;28;20461;-79
2020/12/21 00:14:48;;;;;;;3.13;2.10;;;9.70;82.40;;;;;;5070492;28;20120;-76
2020/12/21 00:17:14;;;;;;;3.55;2.10;;;9.70;82.50;;;;;;5029649;28;20040;-76
2020/12/21 00:19:39;;;;;;;3.72;2.25;;;9.70;82.50;;;;;;5052221;28;20032;-76
2020/12/21 00:22:05;;;;;;;3.92;2.10;;;9.70;82.50;;;;;;5025751;28;20037;-76
2020/12/21 00:24:31;;;;;;;5.75;2.40;;;9.70;82.50;;;;;;5046489;28;20536;-76
2020/12/21 00:26:57;;;;;;;4.63;2.40;;;9.70;82.50;;;;;;5049105;28;20778;-76
2020/12/21 00:29:22;;;;;;;3.45;2.10;;;9.70;82.50;;;;;;5043159;28;20033;-74
2020/12/21 00:31:48;;;;;;;4.18;2.13;;;9.70;82.50;;;;;;5065528;28;20509;-76
2020/12/21 00:34:15;;;;;;;3.35;2.13;;;9.70;82.50;;;;;;5027404;28;20025;-76
2020/12/21 00:36:43;;;;;;;4.95;2.25;;;9.60;82.50;;;;;;5063336;28;20021;-78
2020/12/21 00:39:10;;;;;;;5.03;2.13;;;9.60;82.50;;;;;;5044760;28;20029;-76
2020/12/21 00:41:36;;;;;;;3.38;1.98;;;9.60;82.50;;;;;;5049919;28;20382;-76
2020/12/21 00:44:02;;;;;;;3.75;2.50;;;9.60;82.50;;;;;;5045419;28;20043;-76
2020/12/21 00:46:29;;;;;;;4.07;2.20;;;9.60;82.60;;;;;;5042679;28;20036;-76
2020/12/21 00:48:56;;;;;;;4.68;2.42;;;9.60;82.60;;;;;;5067529;28;20036;-76
2020/12/21 00:51:22;;;;;;;5.15;2.05;;;9.60;82.50;;;;;;5046451;28;20024;-77
2020/12/21 00:53:49;;;;;;;3.40;2.13;;;9.60;82.70;;;;;;5065966;28;20063;-76
2020/12/21 00:56:17;;;;;;;3.97;2.10;;;9.60;82.40;;;;;;5039368;28;20056;-76
2020/12/21 00:58:42;;;;;;;5.00;2.25;;;9.60;82.50;;;;;;5067305;28;20115;-76
2020/12/21 01:01:11;;;;;;;2.72;1.90;;;9.60;82.50;;;;;;5058671;28;20111;-76
2020/12/21 01:03:37;;;;;;;3.92;2.35;;;9.50;82.50;;;;;;5061206;28;20047;-76
2020/12/21 01:06:06;;;;;;;4.53;2.10;;;9.50;82.40;;;;;;5023236;28;20036;-78
2020/12/21 01:08:33;;;;;;;4.43;2.30;;;9.50;82.40;;;;;;5034121;28;20029;-76
2020/12/21 01:10:59;;;;;;;5.18;2.45;;;9.50;82.40;;;;;;5054836;28;20036;-75
2020/12/21 01:13:25;;;;;;;4.47;2.40;;;9.50;82.40;;;;;;5037289;28;20033;-77
2020/12/21 01:15:50;;;;;;;4.10;2.60;;;9.50;82.40;;;;;;5042266;28;20041;-76
2020/12/21 01:18:16;;;;;;;3.50;2.08;;;9.50;82.40;;;;;;5056196;28;20066;-76
2020/12/21 01:20:42;;;;;;;3.97;2.00;;;9.40;82.40;;;;;;5053469;28;20043;-74
2020/12/21 01:23:08;;;;;;;4.85;2.40;;;9.40;82.40;;;;;;5050973;28;20064;-75
2020/12/21 01:25:34;;;;;;;4.05;2.20;;;9.40;82.40;;;;;;5060692;28;20030;-76
2020/12/21 01:28:00;;;;;;;4.28;2.08;;;9.40;82.40;;;;;;5067685;28;20531;-76
2020/12/21 01:30:26;;;;;;;3.13;2.00;;;9.40;82.50;;;;;;5063614;28;20117;-77
2020/12/21 01:32:52;;;;;;;4.88;2.17;;;9.40;82.50;;;;;;5026461;28;20102;-76
2020/12/21 01:35:17;;;;;;;4.25;2.20;;;9.40;82.50;;;;;;5056725;28;20020;-76
2020/12/21 01:37:43;;;;;;;4.03;2.10;;;9.30;82.40;;;;;;5037927;28;20033;-76
2020/12/21 01:40:12;;;;;;;3.22;1.90;;;9.30;82.40;;;;;;5046611;28;20037;-76
2020/12/21 01:42:38;;;;;;;4.28;2.28;;;9.30;82.40;;;;;;5058185;28;20028;-76
2020/12/21 01:45:08;;;;;;;3.83;2.10;;;9.30;82.40;;;;;;5062937;28;20397;-76
2020/12/21 01:47:35;;;;;;;5.93;2.30;;;9.30;82.50;;;;;;5029512;28;20043;-76
2020/12/21 01:50:05;;;;;;;3.72;2.00;;;9.30;82.50;;;;;;5058517;28;20033;-76
2020/12/21 01:52:32;;;;;;;3.53;2.25;;;9.30;82.50;;;;;;5054677;28;20039;-76
2020/12/21 01:54:57;;;;;;;3.33;2.10;;;9.30;82.50;;;;;;5062294;28;20029;-76
2020/12/21 01:57:23;;;;;;;3.83;2.05;;;9.20;82.40;;;;;;5062831;28;20031;-76
2020/12/21 01:59:49;;;;;;;3.67;2.05;;;9.30;82.50;;;;;;5037883;28;20041;-76
2020/12/21 02:02:15;;;;;;;3.58;1.95;;;9.20;82.40;;;;;;5058813;28;20068;-77
2020/12/21 02:04:40;;;;;;;3.25;2.05;;;9.20;82.40;;;;;;5058081;28;20382;-76
2020/12/21 02:07:07;;;;;;;3.33;1.95;;;9.20;82.40;;;;;;5058380;28;20111;-76
2020/12/21 02:09:34;;;;;;;4.30;2.00;;;9.20;82.50;;;;;;5058055;28;20029;-76
2020/12/21 02:11:59;;;;;;;4.50;2.33;;;9.20;82.50;;;;;;5070345;28;20036;-77
2020/12/21 02:14:25;;;;;;;4.70;2.15;;;9.20;82.50;;;;;;5043410;28;20039;-76
2020/12/21 02:16:51;;;;;;;3.85;2.25;;;9.10;82.50;;;;;;5059672;28;20036;-76
2020/12/21 02:19:18;;;;;;;5.00;2.15;;;9.10;82.50;;;;;;5046770;28;20115;-76
2020/12/21 02:21:45;;;;;;;3.67;2.08;;;9.10;82.50;;;;;;5037017;28;20037;-77
2020/12/21 02:24:10;;;;;;;4.40;2.30;;;9.10;82.50;;;;;;5064181;28;20124;-76
2020/12/21 02:26:36;;;;;;;4.32;2.22;;;9.10;82.50;;;;;;5032651;28;20151;-76
2020/12/21 02:29:02;;;;;;;4.70;2.42;;;9.10;82.50;;;;;;5053159;28;20039;-76
2020/12/21 02:31:28;;;;;;;2.72;2.03;;;9.00;82.50;;;;;;5064200;28;20056;-77
2020/12/21 02:33:53;;;;;;;4.30;2.10;;;9.10;82.50;;;;;;5035100;28;20029;-76
2020/12/21 02:36:19;;;;;;;4.75;2.20;;;9.00;82.50;;;;;;5056338;28;20029;-76
2020/12/21 02:38:45;;;;;;;3.67;1.95;;;9.00;82.50;;;;;;5039404;28;20401;-76
2020/12/21 02:41:16;;;;;;;3.63;2.03;;;9.00;82.50;;;;;;5064631;28;20202;-80
2020/12/21 02:43:43;;;;;;;4.65;2.20;;;9.00;82.60;;;;;;5049863;28;20028;-76
2020/12/21 02:46:16;;;;;;;3.75;2.15;;;9.00;82.50;;;;;;5045423;28;20051;-76
2020/12/21 02:48:43;;;;;;;3.38;2.03;;;8.90;82.50;;;;;;5032309;28;20016;-76
2020/12/21 02:51:10;;;;;;;3.88;2.10;;;8.90;82.50;;;;;;5045754;28;20389;-76
2020/12/21 02:53:36;;;;;;;2.85;1.83;;;8.90;82.50;;;;;;5036339;28;20119;-76
2020/12/21 02:56:04;;;;;;;3.85;2.10;;;8.90;82.50;;;;;;5055489;28;20111;-76
2020/12/21 02:58:30;;;;;;;3.38;2.05;;;8.90;82.50;;;;;;5049239;28;20116;-75
2020/12/21 03:00:56;;;;;;;4.15;2.13;;;8.90;82.60;;;;;;5030954;28;20121;-76
2020/12/21 03:03:22;;;;;;;4.97;2.17;;;8.90;82.50;;;;;;5064185;28;20029;-76
2020/12/21 03:05:47;;;;;;;3.92;2.10;;;8.90;82.60;;;;;;5038830;28;20457;-76
2020/12/21 03:08:15;;;;;;;3.30;2.08;;;8.90;82.50;;;;;;5047537;28;20037;-80
2020/12/21 03:10:41;;;;;;;3.28;1.90;;;8.90;82.60;;;;;;5058723;28;20028;-76
2020/12/21 03:13:07;;;;;;;2.20;1.83;;;8.90;82.60;;;;;;5055271;28;20072;-75
2020/12/21 03:15:33;;;;;;;3.63;2.00;;;8.90;82.60;;;;;;5065674;28;20052;-76
2020/12/21 03:17:59;;;;;;;2.80;1.95;;;8.80;82.50;;;;;;5042428;28;20029;-76
2020/12/21 03:20:24;;;;;;;4.18;2.00;;;8.80;82.50;;;;;;5057317;28;20045;-76
2020/12/21 03:22:50;;;;;;;3.00;1.90;;;8.80;82.60;;;;;;5057863;28;20029;-74
2020/12/21 03:25:16;;;;;;;4.10;2.28;;;8.80;82.60;;;;;;5043303;28;20029;-79
2020/12/21 03:27:43;;;;;;;3.10;1.98;;;8.80;82.60;;;;;;5065277;28;20666;-75
2020/12/21 03:30:10;;;;;;;2.65;1.85;;;8.70;82.50;;;;;;5037848;28;20183;-74
2020/12/21 03:32:36;;;;;;;3.60;2.08;;;8.70;82.50;;;;;;5049315;28;20087;-74
2020/12/21 03:35:04;;;;;;;3.40;1.90;;;8.70;82.50;;;;;;5059760;28;20060;-75
2020/12/21 03:37:33;;;;;;;2.97;1.92;;;8.70;82.50;;;;;;5062011;28;20473;-75
2020/12/21 03:40:00;;;;;;;2.90;1.95;;;8.70;82.50;;;;;;5043896;28;20106;-74
2020/12/21 03:42:26;;;;;;;2.97;1.73;;;8.70;82.50;;;;;;5047813;28;20040;-74
2020/12/21 03:44:52;;;;;;;3.72;2.08;;;8.70;82.50;;;;;;5063422;28;20733;-74
2020/12/21 03:47:17;;;;;;;3.08;1.90;;;8.70;82.50;;;;;;5067970;28;20465;-78
2020/12/21 03:49:43;;;;;;;3.20;1.92;;;8.70;82.50;;;;;;5048327;28;20671;-74
2020/12/21 03:52:09;;;;;;;4.60;2.20;;;8.70;82.60;;;;;;5029840;28;20032;-74
2020/12/21 03:54:35;;;;;;;3.13;1.98;;;8.70;82.60;;;;;;5045566;28;20040;-74
2020/12/21 03:57:00;;;;;;;2.65;1.77;;;8.70;82.60;;;;;;5064131;28;20504;-75
2020/12/21 03:59:26;;;;;;;4.63;2.00;;;8.70;82.60;;;;;;5042476;28;20052;-74
2020/12/21 04:01:52;;;;;;;3.83;1.90;;;8.60;82.50;;;;;;5064076;28;20480;-75
2020/12/21 04:04:17;;;;;;;3.17;2.20;;;8.60;82.60;;;;;;5064342;28;20041;-75
2020/12/21 04:06:43;;;;;;;2.28;1.63;;;8.60;82.70;;;;;;5062064;28;20103;-74
2020/12/21 04:09:09;;;;;;;2.60;1.80;;;8.60;82.60;;;;;;5067679;28;20101;-74
2020/12/21 04:11:35;;;;;;;2.30;1.52;;;8.60;82.50;;;;;;5061069;28;20086;-74
2020/12/21 04:14:00;;;;;;;3.92;2.00;;;8.60;82.60;;;;;;5066906;28;20029;-74
2020/12/21 04:16:26;;;;;;;4.57;2.10;;;8.60;82.60;;;;;;5063018;28;20477;-74
2020/12/21 04:18:52;;;;;;;2.75;1.70;;;8.60;82.60;;;;;;5045975;28;20079;-74
2020/12/21 04:21:18;;;;;;;3.50;2.05;;;8.50;82.50;;;;;;5055325;28;20064;-74
2020/12/21 04:23:44;;;;;;;3.63;2.10;;;8.50;82.50;;;;;;5041645;28;20052;-74
2020/12/21 04:26:09;;;;;;;3.35;1.90;;;8.50;82.50;;;;;;5049387;28;20125;-74
2020/12/21 04:28:35;;;;;;;2.67;1.90;;;8.50;82.60;;;;;;5027636;28;20124;-74
2020/12/21 04:31:02;;;;;;;2.88;1.88;;;8.50;82.50;;;;;;5050745;28;20508;-74
2020/12/21 04:33:28;;;;;;;3.45;2.13;;;8.50;82.60;;;;;;5041451;28;20124;-74
2020/12/21 04:35:54;;;;;;;3.17;2.05;;;8.50;82.60;;;;;;5038288;28;20553;-75
2020/12/21 04:38:20;;;;;;;3.10;2.10;;;8.50;82.60;;;;;;5056902;28;20040;-77
2020/12/21 04:40:52;;;;;;;3.90;1.90;;;8.50;82.60;;;;;;5049549;28;20702;-74
2020/12/21 04:43:19;;;;;;;3.17;2.00;;;8.50;82.60;;;;;;5058297;28;20443;-74
2020/12/21 04:45:49;;;;;;;3.38;1.88;;;8.40;82.50;;;;;;5064518;28;20028;-74
2020/12/21 04:48:16;;;;;;;3.05;1.90;;;8.50;82.60;;;;;;5060054;28;20086;-74
2020/12/21 04:50:42;;;;;;;3.22;2.00;;;8.40;82.60;;;;;;5065204;28;20068;-74
2020/12/21 04:53:11;;;;;;;3.90;1.70;;;8.40;82.60;;;;;;5067450;28;20028;-75
2020/12/21 04:55:37;;;;;;;3.05;1.83;;;8.40;82.60;;;;;;5060624;28;20035;-74
2020/12/21 04:58:04;;;;;;;2.70;1.83;;;8.40;82.60;;;;;;5056768;28;20029;-74
2020/12/21 05:00:33;;;;;;;3.13;1.80;;;8.40;82.60;;;;;;5036979;28;20048;-74
2020/12/21 05:03:00;;;;;;;2.78;1.98;;;8.40;82.60;;;;;;5035934;28;20103;-75
2020/12/21 05:05:37;;;;;;;3.28;1.80;;;8.40;82.60;;;;;;5044973;28;20074;-74
2020/12/21 05:08:17;;;;;;;2.75;1.80;;;8.40;82.60;;;;;;5040511;28;20104;-74
2020/12/21 05:11:04;;;;;;;2.40;1.80;;;8.40;82.60;;;;;;5052264;28;20828;-74
2020/12/21 05:13:33;;;;;;;3.33;1.92;;;8.30;82.60;;;;;;5061312;28;20025;-74
2020/12/21 05:15:59;;;;;;;2.45;1.75;;;8.40;82.60;;;;;;5043520;28;20519;-74
2020/12/21 05:18:27;;;;;;;2.42;1.83;;;8.30;82.50;;;;;;5055772;28;20108;-74
2020/12/21 05:21:00;;;;;;;4.25;2.05;;;8.30;82.60;;;;;;5045029;28;20437;-74
2020/12/21 05:23:26;;;;;;;4.13;1.92;;;8.30;82.60;;;;;;5057372;28;20033;-76
2020/12/21 05:26:06;;;;;;;2.65;1.73;;;8.30;83.20;;;;;;5065954;28;20178;-74
2020/12/21 05:28:39;;;;;;;3.28;1.80;;;8.30;82.70;;;;;;5048208;28;20043;-75
2020/12/21 05:31:05;;;;;;;3.13;1.63;;;8.30;82.60;;;;;;5069039;28;20060;-74
2020/12/21 05:33:32;;;;;;;2.88;1.80;;;8.30;82.60;;;;;;5061195;28;20496;-75
2020/12/21 05:36:26;;;;;;;2.85;1.70;;;8.30;82.60;;;;;;5063391;28;20115;-74
2020/12/21 05:39:04;;;;;;;2.88;1.70;;;8.30;82.70;;;;;;5056009;28;20477;-74
2020/12/21 05:41:30;;;;;;;2.28;1.60;;;8.30;82.70;;;;;;5068960;28;20040;-75
2020/12/21 05:44:03;;;;;;;2.35;1.60;;;8.20;82.50;;;;;;5046186;28;20512;-76
2020/12/21 05:46:29;;;;;;;2.38;1.80;;;8.20;82.60;;;;;;5050551;28;20024;-74
2020/12/21 05:48:56;;;;;;;2.80;1.70;;;8.20;82.60;;;;;;5062730;28;20036;-74
2020/12/21 05:51:22;;;;;;;2.58;1.80;;;8.20;82.60;;;;;;5047427;28;20031;-75
2020/12/21 05:53:51;;;;;;;2.85;1.80;;;8.20;82.60;;;;;;5055581;28;20021;-74
2020/12/21 05:56:18;;;;;;;2.45;1.75;;;8.20;82.60;;;;;;5046595;28;20043;-74
2020/12/21 05:58:45;;;;;;;2.75;1.85;;;8.20;82.60;;;;;;5032273;28;20465;-74
2020/12/21 06:01:12;;;;;;;3.25;1.98;;;8.20;82.60;;;;;;5055783;28;20037;-75
2020/12/21 06:03:54;;;;;;;3.70;1.65;;;8.20;82.70;;;;;;5038382;28;20029;-74
2020/12/21 06:06:26;;;;;;;3.55;1.90;;;8.20;82.70;;;;;;5050633;28;20100;-74
2020/12/21 06:08:56;;;;;;;4.07;1.60;;;8.20;82.60;;;;;;5046814;28;20025;-74
2020/12/21 06:11:24;;;;;;;2.85;1.90;;;8.20;82.60;;;;;;5052002;28;20039;-74
2020/12/21 06:14:12;;;;;;;3.08;1.80;;;8.20;82.70;;;;;;5044664;28;20032;-74
2020/12/21 06:16:39;;;;;;;1.92;1.60;;;8.10;82.70;;;;;;5061009;28;20029;-75
2020/12/21 06:19:06;;;;;;;3.30;1.88;;;8.10;82.60;;;;;;5050835;28;20029;-74
2020/12/21 06:21:37;;;;;;;4.05;1.98;;;8.10;82.60;;;;;;5058491;28;20043;-77
2020/12/21 06:24:21;;;;;;;2.78;1.90;;;8.10;82.60;;;;;;5059631;28;20056;-74
2020/12/21 06:26:47;;;;;;;2.53;1.67;;;8.10;82.70;;;;;;5041142;28;20025;-74
2020/12/21 06:29:25;;;;;;;2.95;1.90;;;8.10;82.60;;;;;;5050828;28;20052;-74
2020/12/21 06:31:53;;;;;;;2.92;1.70;;;8.10;82.70;;;;;;5054463;28;20127;-73
2020/12/21 06:34:35;;;;;;;2.92;1.92;;;8.10;82.60;;;;;;5061632;28;20033;-76
2020/12/21 06:37:02;;;;;;;2.80;1.73;;;8.10;82.70;;;;;;5052947;28;20033;-75
2020/12/21 06:39:28;;;;;;;3.25;1.70;;;8.10;82.60;;;;;;5042228;28;20024;-75
2020/12/21 06:42:14;;;;;;;2.65;1.70;;;8.10;82.60;;;;;;5039920;28;20036;-74
2020/12/21 06:44:42;;;;;;;2.72;1.80;;;8.10;82.80;;;;;;5056815;28;20037;-76
2020/12/21 06:47:10;;;;;;;2.45;1.63;;;8.10;82.70;;;;;;5040747;28;20016;-74
2020/12/21 06:49:36;;;;;;;2.47;1.75;;;8.10;83.30;;;;;;5044923;28;20086;-74
2020/12/21 06:52:04;;;;;;;3.53;1.73;;;8.00;82.60;;;;;;5058261;28;20469;-75
2020/12/21 06:54:30;;;;;;;2.92;1.95;;;8.10;83.30;;;;;;5056176;28;20033;-74
2020/12/21 06:56:56;;;;;;;1.77;1.60;;;8.10;82.70;;;;;;5021897;28;20433;-75
2020/12/21 06:59:24;;;;;;;3.10;1.70;;;8.10;82.70;;;;;;5062140;28;20119;-74
2020/12/21 07:01:51;;;;;;;2.78;1.67;;;8.10;82.70;;;;;;5050408;28;20392;-74
2020/12/21 07:04:22;;;;;;;2.63;1.70;;;8.10;82.80;;;;;;5037189;28;20127;-74
2020/12/21 07:06:49;;;;;;;2.88;1.65;;;8.10;82.70;;;;;;5061992;28;20021;-76
2020/12/21 07:09:26;;;;;;;3.80;1.98;;;8.10;82.60;;;;;;5051921;28;20053;-74
2020/12/21 07:12:00;;;;;;;2.15;1.80;;;8.00;82.60;;;;;;5045899;28;20048;-74
2020/12/21 07:14:27;;;;;;;3.67;1.90;;;8.10;82.60;;;;;;5066157;28;20461;-75
2020/12/21 07:17:15;;;;;;;2.05;1.60;;;8.10;82.60;;;;;;5056277;28;20527;-74
2020/12/21 07:19:45;;;;;;;2.92;1.70;;;8.00;83.30;;;;;;5064046;28;20036;-76
2020/12/21 07:22:12;;;;;;;2.63;1.70;;;8.10;83.30;;;;;;5062407;28;20372;-74
2020/12/21 07:24:39;;;;;;;3.28;2.03;;;8.00;82.60;;;;;;5066709;28;20037;-75
2020/12/21 07:27:05;;;;;;;2.45;1.75;;;8.00;82.60;;;;;;5065280;28;20029;-74
2020/12/21 07:29:33;;;;;;;2.20;1.60;;;8.00;82.60;;;;;;5065493;28;20031;-75
2020/12/21 07:31:59;;;;;;;2.45;1.80;;;8.00;82.60;;;;;;5064474;28;20053;-74
2020/12/21 07:34:25;;;;;;;2.47;1.80;;;8.00;82.70;;;;;;5059205;28;20032;-74
2020/12/21 07:36:50;;;;;;;2.28;1.90;;;8.00;82.70;;;;;;5064246;28;20544;-74
2020/12/21 07:39:18;;;;;;;1.83;1.60;;;8.00;82.70;;;;;;5024823;28;20451;-75
2020/12/21 07:41:51;;;;;;;2.70;1.70;;;8.00;82.70;;;;;;5048049;28;20029;-75
2020/12/21 07:44:20;;;;;;;2.85;1.70;;;8.00;82.60;;;;;;5059038;28;20080;-74
2020/12/21 07:47:04;;;;;;;4.05;1.90;;;8.00;82.70;;;;;;5068105;28;20032;-75
2020/12/21 07:49:34;;;;;;;1.67;1.55;;;8.00;82.70;;;;;;5053650;28;20031;-74
2020/12/21 07:52:02;;;;;;;2.40;1.80;;;8.00;82.60;;;;;;5059321;28;20531;-74
2020/12/21 07:54:31;;;;;;;1.83;1.50;;;7.90;82.60;;;;;;5057049;28;20047;-74
2020/12/21 07:57:01;;;;;;;2.60;1.67;;;8.00;82.70;;;;;;5061572;28;20028;-75
2020/12/21 07:59:27;;;;;;;2.10;1.63;;;7.90;82.60;;;;;;5064648;28;20112;-75
2020/12/21 08:01:57;;;;;;;2.75;1.90;;;8.00;82.60;;;;;;5062365;28;20431;-75
2020/12/21 08:04:24;;;;;;;2.53;1.77;;;7.90;82.60;;;;;;5034249;28;20135;-75
2020/12/21 08:06:49;;;;;;;2.92;1.60;;;8.00;82.60;;;;;;5044574;28;20032;-76
2020/12/21 08:09:16;;;;;;;1.98;1.60;;;7.90;82.60;;;;;;5063419;28;20055;-76
2020/12/21 08:11:42;;;;;;;3.55;1.83;;;8.00;82.70;;;;;;5055054;28;20032;-75
2020/12/21 08:14:14;;;;;;;3.33;2.08;;;7.90;82.60;;;;;;5062432;28;20106;-75
2020/12/21 08:16:39;;;;;;;2.65;1.90;;;7.90;82.60;;;;;;5068995;28;20021;-75
2020/12/21 08:19:13;;;;;;;2.05;1.80;;;7.90;82.60;;;;;;5063738;28;20029;-75
2020/12/21 08:21:40;;;;;;;3.25;1.95;;;7.90;82.60;;;;;;5067988;28;20032;-76
2020/12/21 08:24:07;;;;;;;2.35;1.98;;;7.90;82.60;;;;;;5032839;28;20039;-75
2020/12/21 08:26:36;;;;;;;3.05;1.80;;;8.00;82.70;;;;;;5069866;28;20112;-75
2020/12/21 08:29:03;;;;;;;2.50;1.70;;;7.90;82.60;;;;;;5064073;28;20016;-75
2020/12/21 08:31:29;;;;;;;3.05;1.80;;;7.90;82.60;;;;;;5058244;28;20052;-75
2020/12/21 08:34:04;;;;;;;3.22;1.90;;;7.90;82.60;;;;;;5050155;28;20384;-75
2020/12/21 08:36:35;;;;;;;2.47;1.85;;;7.90;82.70;;;;;;5061959;28;20036;-74
2020/12/21 08:39:08;;;;;;;2.42;1.77;;;7.90;82.60;;;;;;5050313;28;20063;-75
2020/12/21 08:41:36;;;;;;;2.80;1.80;;;7.90;82.60;;;;;;5060543;28;20389;-75
2020/12/21 08:44:05;;;;;;;1.95;1.70;;;7.90;82.60;;;;;;5068638;28;20052;-75
2020/12/21 08:46:30;;;;;;;3.58;1.83;;;7.90;82.60;;;;;;5062515;28;20029;-75
2020/12/21 08:48:56;;;;;;;3.03;1.70;;;7.90;82.70;;;;;;5068933;28;20055;-74
2020/12/21 08:51:22;;;;;;;2.35;1.73;;;7.90;82.60;;;;;;5056613;28;20385;-75
2020/12/21 08:53:48;;;;;;;2.95;1.90;;;7.90;82.60;;;;;;5061009;28;20139;-74
2020/12/21 08:56:15;;;;;;;2.83;1.90;;;7.90;82.60;;;;;;5060240;28;20107;-74
2020/12/21 08:58:41;;;;;;;2.35;1.70;;;7.90;82.70;;;;;;5067270;28;20060;-74
2020/12/21 09:01:07;;;;;;;3.15;1.80;;;8.00;82.70;;;;;;5061208;28;20044;-74
2020/12/21 09:03:34;;;;;;;2.03;1.63;;;7.90;82.60;;;;;;5067420;28;20056;-75
2020/12/21 09:06:00;;;;;;;2.50;1.73;;;8.00;82.70;;;;;;5061756;28;20095;-74
2020/12/21 09:08:26;;;;;;;3.10;2.05;;;8.00;82.70;;;;;;5053608;28;20037;-76
2020/12/21 09:10:52;;;;;;;2.63;1.70;;;8.00;82.60;;;;;;5037545;28;20044;-74
2020/12/21 09:13:17;;;;;;;3.60;1.80;;;8.00;82.60;;;;;;5035259;28;20029;-76
2020/12/21 09:15:43;;;;;;;1.73;1.60;;;8.00;82.60;;;;;;5030613;28;20483;-75
2020/12/21 09:18:09;;;;;;;3.00;1.65;;;8.00;82.60;;;;;;5046985;28;20511;-74
2020/12/21 09:20:35;;;;;;;2.80;1.77;;;8.00;82.60;;;;;;5043792;28;20064;-75
2020/12/21 09:23:00;;;;;;;2.60;1.60;;;8.00;82.60;;;;;;5063816;28;21432;-74
2020/12/21 09:25:26;;;;;;;3.38;1.77;;;8.00;82.60;;;;;;5067587;28;20033;-75
2020/12/21 09:27:52;;;;;;;1.98;1.63;;;8.00;82.60;;;;;;5046842;28;20040;-75
2020/12/21 09:30:18;;;;;;;2.97;1.67;;;8.00;82.60;;;;;;5057177;28;20025;-74
2020/12/21 09:32:43;;;;;;;3.22;1.70;;;8.00;82.60;;;;;;5058104;28;20129;-75
2020/12/21 09:35:09;;;;;;;2.75;1.50;;;8.00;82.60;;;;;;5058317;28;20033;-75
2020/12/21 09:37:35;;;;;;;2.65;1.70;;;8.00;82.60;;;;;;5049957;28;20029;-74
2020/12/21 09:40:00;;;;;;;2.78;1.85;;;8.10;82.60;;;;;;5062600;28;20458;-74
2020/12/21 09:42:26;;;;;;;2.30;1.60;;;8.10;82.60;;;;;;5050708;28;20111;-74
2020/12/21 09:44:52;;;;;;;2.03;1.50;;;8.10;82.60;;;;;;5055011;28;20579;-74
2020/12/21 09:47:18;;;;;;;2.55;1.60;;;8.10;82.60;;;;;;5055102;28;20035;-75
2020/12/21 09:49:44;;;;;;;3.65;1.70;;;8.10;82.60;;;;;;5045805;28;20039;-75
2020/12/21 09:52:10;;;;;;;3.42;1.85;;;8.10;82.60;;;;;;5058700;28;20051;-75
2020/12/21 09:54:36;;;;;;;2.80;1.80;;;8.20;82.70;;;;;;5049138;28;20249;-75
2020/12/21 09:57:02;;;;;;;2.72;1.90;;;8.20;82.70;;;;;;5060127;28;20056;-75
2020/12/21 09:59:28;;;;;;;3.33;1.70;;;8.20;82.60;;;;;;5059954;28;20361;-76
2020/12/21 10:01:54;;;;;;;2.50;1.50;;;8.20;82.60;;;;;;5042588;28;20032;-75
2020/12/21 10:04:20;;;;;;;2.45;1.63;;;8.20;82.60;;;;;;5056242;28;20342;-75
2020/12/21 10:06:50;;;;;;;2.70;1.60;;;8.20;82.60;;;;;;5058251;28;20095;-75
2020/12/21 10:09:16;;;;;;;2.25;1.50;;;8.20;82.60;;;;;;5041864;28;20085;-75
2020/12/21 10:11:41;;;;;;;3.10;1.60;;;8.30;82.70;;;;;;5050754;28;20036;-75
2020/12/21 10:14:07;;;;;;;4.30;1.80;;;8.30;82.60;;;;;;5044243;28;20162;-75
2020/12/21 10:16:33;;;;;;;2.55;1.88;;;8.30;82.60;;;;;;5056215;28;20021;-74
2020/12/21 10:18:59;;;;;;;2.88;1.90;;;8.30;82.60;;;;;;5061970;28;20106;-75
2020/12/21 10:21:25;;;;;;;2.33;1.65;;;8.30;82.60;;;;;;5058157;28;20044;-76
2020/12/21 10:23:50;;;;;;;4.28;1.67;;;8.30;82.60;;;;;;5056216;28;20083;-75
2020/12/21 10:26:16;;;;;;;2.42;1.60;;;8.30;82.60;;;;;;5028688;28;20127;-76
2020/12/21 10:28:42;;;;;;;2.88;1.55;;;8.30;82.60;;;;;;5059235;28;20021;-74
2020/12/21 10:31:08;;;;;;;2.10;1.70;;;8.30;82.60;;;;;;5060134;28;20040;-74
2020/12/21 10:33:34;;;;;;;3.13;1.75;;;8.40;82.60;;;;;;5058527;28;20075;-75
2020/12/21 10:36:00;;;;;;;1.67;1.50;;;8.40;82.70;;;;;;5062450;28;20465;-75
2020/12/21 10:38:25;;;;;;;1.60;1.48;;;8.40;82.60;;;;;;5040094;28;20025;-75
2020/12/21 10:40:51;;;;;;;2.45;1.80;;;8.40;82.70;;;;;;5064418;28;20431;-76
2020/12/21 10:43:16;;;;;;;2.28;1.55;;;8.40;82.60;;;;;;5064222;28;20488;-75
2020/12/21 10:45:42;;;;;;;2.33;1.60;;;8.40;82.60;;;;;;5065338;28;20119;-75
2020/12/21 10:48:08;;;;;;;3.80;1.63;;;8.40;82.60;;;;;;5043060;28;20032;-75
2020/12/21 10:50:34;;;;;;;1.90;1.48;;;8.50;82.70;;;;;;5056906;28;20041;-76
2020/12/21 10:52:59;;;;;;;2.70;1.60;;;8.50;82.70;;;;;;5066574;28;20036;-75
2020/12/21 10:55:25;;;;;;;3.47;1.67;;;8.50;82.70;;;;;;5057585;28;20064;-75
2020/12/21 10:57:51;;;;;;;3.25;1.50;;;8.50;82.70;;;;;;5057015;28;20063;-74
2020/12/21 11:00:17;;;;;;;2.15;1.70;;;8.50;82.60;;;;;;5066885;28;20512;-76
2020/12/21 11:02:42;;;;;;;3.28;1.65;;;8.60;82.70;;;;;;5044537;28;20072;-75
2020/12/21 11:05:10;;;;;;;2.55;1.75;;;8.60;82.70;;;;;;5041082;28;20442;-75
2020/12/21 11:07:35;;;;;;;2.03;1.42;;;8.60;82.70;;;;;;5058876;28;20066;-75
2020/12/21 11:10:03;;;;;;;2.88;1.70;;;8.60;82.60;;;;;;5032719;28;20029;-75
2020/12/21 11:12:29;;;;;;;2.63;1.70;;;8.60;82.60;;;;;;5030529;28;20447;-76
2020/12/21 11:14:55;;;;;;;2.38;1.50;;;8.60;82.60;;;;;;5061923;28;20033;-78
2020/12/21 11:17:20;;;;;;;1.77;1.58;;;8.60;82.60;;;;;;5064555;28;20028;-76
2020/12/21 11:19:46;;;;;;;3.15;1.50;;;8.70;82.70;;;;;;5038617;28;20041;-75
2020/12/21 11:22:12;;;;;;;2.53;1.80;;;8.70;82.70;;;;;;5054263;28;20107;-79
2020/12/21 11:24:37;;;;;;;2.83;1.80;;;8.70;82.60;;;;;;5058659;28;20059;-75
2020/12/21 11:27:03;;;;;;;2.72;1.80;;;8.70;82.60;;;;;;5063175;28;20024;-75
2020/12/21 11:29:29;;;;;;;1.70;1.42;;;8.70;82.60;;;;;;5060482;28;20032;-75
2020/12/21 11:31:55;;;;;;;2.90;1.50;;;8.70;83.20;;;;;;5045343;28;20078;-75
2020/12/21 11:34:20;;;;;;;1.98;1.60;;;8.80;82.60;;;;;;5050692;28;20032;-75
2020/12/21 11:36:46;;;;;;;2.67;1.50;;;8.70;82.60;;;;;;5049924;28;20028;-74
2020/12/21 11:39:12;;;;;;;2.85;1.60;;;8.80;82.60;;;;;;5069813;28;20050;-75
2020/12/21 11:41:39;;;;;;;1.75;1.40;;;8.80;82.60;;;;;;5062380;28;20177;-74
2020/12/21 11:44:05;;;;;;;1.88;1.50;;;8.80;82.60;;;;;;5061356;28;20040;-75
2020/12/21 11:46:32;;;;;;;2.40;1.73;;;8.80;82.60;;;;;;5060320;28;20025;-75
2020/12/21 11:48:58;;;;;;;3.25;1.80;;;8.80;82.60;;;;;;5066020;28;20099;-76
2020/12/21 11:51:25;;;;;;;3.42;1.67;;;8.90;82.60;;;;;;5068069;28;20035;-75
2020/12/21 11:53:50;;;;;;;2.30;1.70;;;8.90;82.60;;;;;;5048147;28;20146;-75
2020/12/21 11:56:20;;;;;;;2.58;1.70;;;8.90;82.60;;;;;;5055949;28;20120;-75
2020/12/21 11:58:46;;;;;;;4.18;1.80;;;8.90;82.60;;;;;;5071744;28;20025;-74
2020/12/21 12:01:12;;;;;;;1.90;1.55;;;8.90;82.60;;;;;;5062658;28;20048;-75
2020/12/21 12:03:38;;;;;;;2.90;1.70;;;8.90;82.60;;;;;;5053234;28;20028;-74
2020/12/21 12:06:04;;;;;;;3.22;1.63;;;9.00;82.60;;;;;;5048371;28;20122;-74
2020/12/21 12:08:29;;;;;;;3.47;2.00;;;9.00;82.60;;;;;;5035708;28;20081;-76
2020/12/21 12:10:55;;;;;;;2.25;1.92;;;8.90;82.50;;;;;;5051188;28;20032;-75
2020/12/21 12:13:21;;;;;;;2.30;1.60;;;9.00;82.60;;;;;;5051181;28;20028;-74
2020/12/21 12:15:49;;;;;;;2.67;1.90;;;9.00;82.60;;;;;;5069164;28;20059;-74
2020/12/21 12:18:15;;;;;;;4.15;1.85;;;9.00;82.60;;;;;;5061260;28;20033;-75
2020/12/21 12:20:40;;;;;;;3.63;1.98;;;9.00;82.50;;;;;;5068734;28;20500;-74
2020/12/21 12:23:06;;;;;;;3.30;1.70;;;9.00;82.50;;;;;;5060619;28;20029;-75
2020/12/21 12:25:32;;;;;;;3.67;1.77;;;9.10;82.50;;;;;;5068088;28;20131;-75
2020/12/21 12:27:58;;;;;;;3.28;1.73;;;9.10;82.50;;;;;;5068111;28;20025;-75
2020/12/21 12:30:23;;;;;;;2.35;1.55;;;9.10;82.50;;;;;;5067159;28;20036;-76
2020/12/21 12:32:49;;;;;;;3.15;1.88;;;9.10;82.50;;;;;;5067566;28;20128;-75
2020/12/21 12:35:15;;;;;;;4.28;1.70;;;9.10;82.50;;;;;;5065828;28;20036;-75
2020/12/21 12:37:40;;;;;;;3.00;2.10;;;9.10;82.50;;;;;;5068166;28;20033;-77
2020/12/21 12:40:06;;;;;;;2.22;1.70;;;9.10;82.50;;;;;;5047775;28;20033;-75
2020/12/21 12:42:33;;;;;;;2.70;1.73;;;9.20;82.50;;;;;;5069107;28;20033;-75
2020/12/21 12:44:59;;;;;;;3.55;1.92;;;9.20;82.50;;;;;;5065796;28;20125;-74
2020/12/21 12:47:25;;;;;;;2.30;1.58;;;9.20;82.50;;;;;;5068363;28;20009;-75
2020/12/21 12:49:51;;;;;;;3.42;1.90;;;9.20;82.50;;;;;;5060377;28;20040;-74
2020/12/21 12:52:16;;;;;;;3.60;1.95;;;9.20;82.40;;;;;;5067794;28;20041;-74
2020/12/21 12:54:42;;;;;;;3.15;1.73;;;9.20;82.40;;;;;;5032270;28;20039;-74
2020/12/21 12:57:08;;;;;;;3.63;1.77;;;9.30;82.50;;;;;;5062805;28;20037;-74